Time;durP1;ratioP1;P1;durP2;ratioP2;P2;SDS_P1;SDS_P2;PMS_P1;PMS_P2;Temp;Humidity;BMP_temperature;BMP_pressure;BME280_temperature;BME280_humidity;BME280_pressure;Samples;Min_cycle;Max_cycle;Signal;HPM_P1;HPM_P2
2022/01/23 00:00:35;;;;;;;;;47.00;37.00;;;;;;;;5034334;28;46185;-70
2022/01/23 00:03:07;;;;;;;;;48.50;38.75;;;;;;;;5034806;28;47684;-69
2022/01/23 00:05:35;;;;;;;;;45.75;37.75;;;;;;;;5034618;28;45476;-68
2022/01/23 00:08:01;;;;;;;;;39.50;36.00;;;;;;;;5034877;28;45428;-71
2022/01/23 00:10:27;;;;;;;;;45.25;36.75;;;;;;;;5034021;28;47402;-69
2022/01/23 00:13:05;;;;;;;;;53.00;43.00;;;;;;;;5034154;28;45614;-69
2022/01/23 00:18:14;;;;;;;;;53.00;40.00;;;;;;;;5034420;28;45434;-70
2022/01/23 00:20:39;;;;;;;;;43.75;35.75;;;;;;;;5040923;27;46367;-70
2022/01/23 00:23:13;;;;;;;;;41.25;35.00;;;;;;;;5098340;27;45352;-70
2022/01/23 00:31:06;;;;;;;;;51.50;39.00;;;;;;;;5097268;27;45476;-70
2022/01/23 00:33:31;;;;;;;;;49.75;41.25;;;;;;;;5101837;27;45434;-69
2022/01/23 00:35:57;;;;;;;;;45.50;39.00;;;;;;;;5107887;27;45541;-70
2022/01/23 00:38:22;;;;;;;;;61.75;44.50;;;;;;;;5107992;27;45421;-68
2022/01/23 00:40:47;;;;;;;;;43.00;34.75;;;;;;;;5106873;27;46195;-68
2022/01/23 00:43:16;;;;;;;;;50.00;39.25;;;;;;;;5107369;27;45361;-69
2022/01/23 00:45:53;;;;;;;;;43.25;36.25;;;;;;;;5103297;27;45733;-70
2022/01/23 00:48:24;;;;;;;;;44.75;38.50;;;;;;;;5097372;27;45480;-69
2022/01/23 00:50:50;;;;;;;;;43.75;37.00;;;;;;;;5096684;27;46381;-70
2022/01/23 00:53:15;;;;;;;;;43.75;36.75;;;;;;;;5097326;27;45377;-70
2022/01/23 00:55:41;;;;;;;;;46.25;37.50;;;;;;;;5096590;27;45574;-70
2022/01/23 00:58:07;;;;;;;;;49.00;37.75;;;;;;;;5096102;27;45571;-70
2022/01/23 01:00:33;;;;;;;;;42.75;35.50;;;;;;;;5096338;27;45576;-70
2022/01/23 01:02:58;;;;;;;;;46.25;36.75;;;;;;;;5096495;27;45611;-70
2022/01/23 01:05:26;;;;;;;;;41.50;34.50;;;;;;;;5096909;27;45444;-69
2022/01/23 01:07:51;;;;;;;;;35.75;29.50;;;;;;;;5096394;27;45725;-70
2022/01/23 01:10:23;;;;;;;;;39.75;34.00;;;;;;;;5096028;27;46150;-70
2022/01/23 01:12:51;;;;;;;;;38.75;35.25;;;;;;;;5095493;27;45313;-70
2022/01/23 01:31:20;;;;;;;;;39.75;33.50;;;;;;;;5095732;27;45508;-70
2022/01/23 01:36:22;;;;;;;;;44.50;36.00;;;;;;;;5096347;27;45609;-70
2022/01/23 01:38:49;;;;;;;;;43.50;34.50;;;;;;;;5096233;27;45217;-70
2022/01/23 01:41:14;;;;;;;;;34.75;29.50;;;;;;;;5096119;27;47066;-70
2022/01/23 01:43:40;;;;;;;;;41.50;31.75;;;;;;;;5094334;27;45430;-70
2022/01/23 01:46:05;;;;;;;;;33.50;29.25;;;;;;;;5095765;27;45615;-70
2022/01/23 01:48:30;;;;;;;;;34.00;32.00;;;;;;;;5096231;27;45401;-70
2022/01/23 01:50:56;;;;;;;;;37.50;32.25;;;;;;;;5095746;27;46124;-70
2022/01/23 01:53:22;;;;;;;;;30.50;28.25;;;;;;;;5095218;27;45411;-70
2022/01/23 01:55:51;;;;;;;;;42.50;35.50;;;;;;;;5095397;27;45436;-70
2022/01/23 02:17:21;;;;;;;;;33.50;27.50;;;;;;;;5072282;28;45445;-71
2022/01/23 02:22:55;;;;;;;;;38.50;32.50;;;;;;;;5072911;27;45712;-71
2022/01/23 02:55:10;;;;;;;;;37.25;33.75;;;;;;;;5094108;27;46194;-70
2022/01/23 03:00:13;;;;;;;;;34.75;29.75;;;;;;;;5094950;27;45565;-70
2022/01/23 03:02:44;;;;;;;;;36.25;31.25;;;;;;;;5095147;27;45505;-70
2022/01/23 03:05:13;;;;;;;;;34.00;31.50;;;;;;;;5094653;27;47040;-70
2022/01/23 03:07:55;;;;;;;;;40.75;31.75;;;;;;;;5094230;27;45436;-70
2022/01/23 03:10:27;;;;;;;;;34.00;33.25;;;;;;;;5094925;27;46041;-70
2022/01/23 03:29:16;;;;;;;;;37.00;27.25;;;;;;;;5096378;27;45329;-70
2022/01/23 03:32:00;;;;;;;;;35.25;27.75;;;;;;;;5097882;27;45264;-70
2022/01/23 03:34:27;;;;;;;;;30.75;26.00;;;;;;;;5097809;27;45605;-71
2022/01/23 03:36:53;;;;;;;;;29.25;24.00;;;;;;;;5097518;27;46334;-70
2022/01/23 03:39:19;;;;;;;;;34.75;29.00;;;;;;;;5097982;27;45303;-72
2022/01/23 03:41:44;;;;;;;;;28.00;26.75;;;;;;;;5097551;27;45508;-70
2022/01/23 03:44:11;;;;;;;;;32.25;27.50;;;;;;;;5098461;27;45509;-71
2022/01/23 03:46:50;;;;;;;;;30.00;26.50;;;;;;;;5097386;27;46451;-69
2022/01/23 03:49:32;;;;;;;;;33.25;29.75;;;;;;;;5097984;27;45589;-70
2022/01/23 03:52:04;;;;;;;;;34.75;27.00;;;;;;;;5097468;27;45547;-69
2022/01/23 03:54:30;;;;;;;;;39.25;32.75;;;;;;;;5097965;27;45447;-69
2022/01/23 03:56:57;;;;;;;;;39.75;32.75;;;;;;;;5097565;27;47052;-69
2022/01/23 03:59:22;;;;;;;;;37.50;31.50;;;;;;;;5098191;27;45368;-69
2022/01/23 04:01:47;;;;;;;;;45.50;34.50;;;;;;;;5097595;27;45730;-68
2022/01/23 04:06:56;;;;;;;;;26.25;24.25;;;;;;;;5096863;27;45664;-69
2022/01/23 04:09:22;;;;;;;;;35.75;26.75;;;;;;;;5097469;27;45389;-69
2022/01/23 04:11:48;;;;;;;;;31.00;28.00;;;;;;;;5097681;27;45479;-69
2022/01/23 04:14:15;;;;;;;;;26.50;23.25;;;;;;;;5097982;27;45447;-68
2022/01/23 04:17:17;;;;;;;;;38.00;26.25;;;;;;;;5097129;27;47102;-71
2022/01/23 04:19:43;;;;;;;;;31.25;26.75;;;;;;;;5096524;27;45318;-69
2022/01/23 05:00:11;;;;;;;;;34.00;28.25;;;;;;;;5096946;27;45534;-70
2022/01/23 05:03:36;;;;;;;;;30.00;26.00;;;;;;;;5097157;27;45514;-70
2022/01/23 05:05:39;;;;;;;;;41.25;32.25;;;;;;;;5095724;27;45306;-70
2022/01/23 05:08:08;;;;;;;;;37.00;28.50;;;;;;;;5097565;27;45257;-71
2022/01/23 05:10:33;;;;;;;;;26.75;21.75;;;;;;;;5096759;27;45546;-70
2022/01/23 05:12:59;;;;;;;;;29.50;24.50;;;;;;;;5096693;27;45374;-70
2022/01/23 05:15:24;;;;;;;;;29.00;26.25;;;;;;;;5096732;27;45404;-70
2022/01/23 05:17:49;;;;;;;;;28.50;26.75;;;;;;;;5096269;27;45594;-70
2022/01/23 05:20:17;;;;;;;;;26.00;24.00;;;;;;;;5097051;27;46594;-70
2022/01/23 05:22:44;;;;;;;;;35.25;28.75;;;;;;;;5096314;27;45487;-70
2022/01/23 05:25:18;;;;;;;;;30.25;28.00;;;;;;;;5096626;27;45340;-70
2022/01/23 05:27:44;;;;;;;;;38.50;29.25;;;;;;;;5096419;27;46092;-69
2022/01/23 05:30:09;;;;;;;;;33.50;29.00;;;;;;;;5096332;27;46005;-69
2022/01/23 05:32:39;;;;;;;;;39.25;29.50;;;;;;;;5096087;27;45480;-69
2022/01/23 05:35:05;;;;;;;;;38.50;30.75;;;;;;;;5094966;27;45171;-70
2022/01/23 05:37:32;;;;;;;;;34.00;27.50;;;;;;;;5096464;27;45484;-68
2022/01/23 05:39:57;;;;;;;;;32.50;27.50;;;;;;;;5096115;27;46127;-70
2022/01/23 05:42:22;;;;;;;;;27.00;19.25;;;;;;;;5096114;27;45389;-68
2022/01/23 05:44:47;;;;;;;;;33.50;29.50;;;;;;;;5095120;27;45362;-70
2022/01/23 05:47:12;;;;;;;;;34.25;27.75;;;;;;;;5096062;27;45346;-69
2022/01/23 05:49:38;;;;;;;;;29.50;25.75;;;;;;;;5095881;27;46192;-69
2022/01/23 05:52:04;;;;;;;;;30.75;23.50;;;;;;;;5094923;27;45362;-71
2022/01/23 05:54:29;;;;;;;;;27.00;25.25;;;;;;;;5095824;27;45686;-70
2022/01/23 05:56:54;;;;;;;;;29.75;24.75;;;;;;;;5096064;27;45295;-69
2022/01/23 05:59:23;;;;;;;;;40.50;30.25;;;;;;;;5096564;27;45796;-70
2022/01/23 06:01:51;;;;;;;;;33.25;26.50;;;;;;;;5095184;27;45416;-70
2022/01/23 06:04:17;;;;;;;;;29.00;26.75;;;;;;;;5095993;27;45355;-69
2022/01/23 06:06:42;;;;;;;;;27.75;22.25;;;;;;;;5095815;27;45550;-70
2022/01/23 06:09:07;;;;;;;;;32.75;26.50;;;;;;;;5095645;27;46194;-70
2022/01/23 06:11:33;;;;;;;;;40.00;33.25;;;;;;;;5095115;27;45496;-70
2022/01/23 06:13:58;;;;;;;;;36.50;31.25;;;;;;;;5095955;27;45325;-69
2022/01/23 06:16:23;;;;;;;;;25.75;22.25;;;;;;;;5095324;27;45420;-69
2022/01/23 06:18:48;;;;;;;;;30.25;22.50;;;;;;;;5095427;27;46218;-69
2022/01/23 06:21:18;;;;;;;;;22.00;19.25;;;;;;;;5095477;27;45380;-69
2022/01/23 06:23:43;;;;;;;;;21.50;20.25;;;;;;;;5095344;27;45343;-69
2022/01/23 06:26:09;;;;;;;;;17.50;15.00;;;;;;;;5095600;27;45456;-68
2022/01/23 06:28:37;;;;;;;;;19.00;17.75;;;;;;;;5094485;27;46462;-70
2022/01/23 06:31:02;;;;;;;;;25.50;19.75;;;;;;;;5094515;27;45369;-70
2022/01/23 06:33:28;;;;;;;;;18.25;17.00;;;;;;;;5095049;27;45384;-70
2022/01/23 06:35:54;;;;;;;;;18.00;14.75;;;;;;;;5095213;27;45417;-70
2022/01/23 06:38:19;;;;;;;;;18.00;17.50;;;;;;;;5095157;27;46428;-70
2022/01/23 06:40:44;;;;;;;;;22.75;20.00;;;;;;;;5094660;27;45297;-70
2022/01/23 06:43:09;;;;;;;;;19.50;18.25;;;;;;;;5094740;27;45443;-70
2022/01/23 06:45:34;;;;;;;;;22.75;19.25;;;;;;;;5094289;27;45343;-70
2022/01/23 06:48:00;;;;;;;;;21.00;17.75;;;;;;;;5094668;27;47250;-70
2022/01/23 06:50:25;;;;;;;;;25.25;18.00;;;;;;;;5095221;27;45397;-70
2022/01/23 06:52:50;;;;;;;;;22.25;18.00;;;;;;;;5094602;27;45474;-70
2022/01/23 06:55:17;;;;;;;;;21.50;17.25;;;;;;;;5094571;27;45543;-70
2022/01/23 06:57:42;;;;;;;;;27.75;23.25;;;;;;;;5093921;27;46494;-70
2022/01/23 07:00:07;;;;;;;;;44.50;40.00;;;;;;;;5094094;27;45462;-70
2022/01/23 07:02:33;;;;;;;;;23.00;21.00;;;;;;;;5096106;27;45911;-70
2022/01/23 07:04:58;;;;;;;;;29.00;25.75;;;;;;;;5098665;27;45487;-70
2022/01/23 07:07:23;;;;;;;;;29.00;22.75;;;;;;;;5097871;27;46150;-68
2022/01/23 07:09:48;;;;;;;;;20.50;17.50;;;;;;;;5098052;27;45448;-69
2022/01/23 07:12:13;;;;;;;;;21.75;15.25;;;;;;;;5098099;27;47476;-69
2022/01/23 07:14:39;;;;;;;;;16.00;16.00;;;;;;;;5098037;27;45319;-68
2022/01/23 07:17:04;;;;;;;;;15.75;14.50;;;;;;;;5098462;27;46273;-72
2022/01/23 07:19:29;;;;;;;;;21.50;16.00;;;;;;;;5097882;27;45459;-74
2022/01/23 07:21:54;;;;;;;;;22.25;16.00;;;;;;;;5098091;27;45498;-72
2022/01/23 07:24:20;;;;;;;;;20.25;16.25;;;;;;;;5098375;27;45447;-73
2022/01/23 07:26:45;;;;;;;;;19.00;16.75;;;;;;;;5098246;27;47180;-73
2022/01/23 07:29:11;;;;;;;;;20.50;16.00;;;;;;;;5098758;27;45313;-72
2022/01/23 07:34:02;;;;;;;;;19.50;17.00;;;;;;;;5098058;27;45536;-72
2022/01/23 07:36:28;;;;;;;;;18.25;16.50;;;;;;;;5097891;27;45483;-72
2022/01/23 07:38:53;;;;;;;;;21.25;17.75;;;;;;;;5098020;27;45367;-72
2022/01/23 07:41:18;;;;;;;;;19.50;14.25;;;;;;;;5098354;27;45439;-72
2022/01/23 07:43:43;;;;;;;;;20.00;14.00;;;;;;;;5097002;27;45599;-73
2022/01/23 07:46:09;;;;;;;;;16.75;15.25;;;;;;;;5097289;27;46017;-72
2022/01/23 07:48:34;;;;;;;;;18.25;16.50;;;;;;;;5096126;27;45568;-72
2022/01/23 07:50:59;;;;;;;;;11.50;11.50;;;;;;;;5097716;27;45469;-72
2022/01/23 07:53:24;;;;;;;;;16.75;12.00;;;;;;;;5097991;27;45477;-72
2022/01/23 07:55:49;;;;;;;;;17.00;12.25;;;;;;;;5097156;27;46297;-73
2022/01/23 07:58:15;;;;;;;;;20.25;17.00;;;;;;;;5096830;27;45243;-72
2022/01/23 08:00:43;;;;;;;;;17.00;13.75;;;;;;;;5097501;27;45586;-72
2022/01/23 08:03:09;;;;;;;;;13.75;13.75;;;;;;;;5097837;27;45239;-72
2022/01/23 08:05:34;;;;;;;;;15.75;15.25;;;;;;;;5097180;27;46274;-74
2022/01/23 08:07:59;;;;;;;;;20.50;15.00;;;;;;;;5097707;27;45371;-73
2022/01/23 08:10:24;;;;;;;;;21.00;17.25;;;;;;;;5097074;27;45426;-73
2022/01/23 08:12:50;;;;;;;;;19.25;15.50;;;;;;;;5096659;27;45226;-73
2022/01/23 08:15:15;;;;;;;;;17.25;10.00;;;;;;;;5096307;27;46337;-73
2022/01/23 08:17:40;;;;;;;;;15.00;14.75;;;;;;;;5096948;27;45521;-73
2022/01/23 08:20:06;;;;;;;;;22.50;19.25;;;;;;;;5097720;27;45209;-77
2022/01/23 08:22:32;;;;;;;;;22.75;16.50;;;;;;;;5096864;27;45422;-75
2022/01/23 08:24:57;;;;;;;;;19.50;17.00;;;;;;;;5096421;27;47071;-72
2022/01/23 08:27:23;;;;;;;;;24.25;17.00;;;;;;;;5096523;27;45425;-76
2022/01/23 08:29:48;;;;;;;;;23.00;21.75;;;;;;;;5097132;27;45503;-76
2022/01/23 08:32:14;;;;;;;;;30.75;23.00;;;;;;;;5097436;27;45298;-75
2022/01/23 08:34:39;;;;;;;;;40.00;24.50;;;;;;;;5097932;27;45437;-75
2022/01/23 08:37:05;;;;;;;;;28.25;22.25;;;;;;;;5096843;27;45443;-75
2022/01/23 08:39:35;;;;;;;;;24.75;23.00;;;;;;;;5096840;27;45489;-77
2022/01/23 08:42:02;;;;;;;;;24.50;23.00;;;;;;;;5096340;27;45457;-77
2022/01/23 08:44:28;;;;;;;;;30.75;23.00;;;;;;;;5096797;27;46172;-77
2022/01/23 08:46:53;;;;;;;;;25.50;23.00;;;;;;;;5105939;27;45370;-78
2022/01/23 08:49:20;;;;;;;;;23.50;22.00;;;;;;;;5092090;27;45289;-77
2022/01/23 08:51:46;;;;;;;;;25.50;24.00;;;;;;;;5096836;27;45463;-78
2022/01/23 08:54:11;;;;;;;;;29.50;25.75;;;;;;;;5096307;27;46294;-78
2022/01/23 08:56:36;;;;;;;;;27.25;22.50;;;;;;;;5095615;27;45824;-79
2022/01/23 08:59:02;;;;;;;;;28.50;24.25;;;;;;;;5095873;27;45423;-78
2022/01/23 09:01:27;;;;;;;;;28.50;23.50;;;;;;;;5096572;27;45195;-77
2022/01/23 09:03:53;;;;;;;;;28.00;23.50;;;;;;;;5096194;27;45289;-76
2022/01/23 09:06:18;;;;;;;;;27.25;25.50;;;;;;;;5096327;27;45381;-77
2022/01/23 09:08:45;;;;;;;;;30.00;22.75;;;;;;;;5096171;27;45612;-77
2022/01/23 09:11:24;;;;;;;;;25.75;22.75;;;;;;;;5096150;27;45290;-77
2022/01/23 09:16:15;;;;;;;;;28.00;27.00;;;;;;;;5095281;27;45329;-78
2022/01/23 09:18:40;;;;;;;;;23.25;19.50;;;;;;;;5095865;27;45297;-77
2022/01/23 09:21:06;;;;;;;;;27.50;25.00;;;;;;;;5096004;27;45307;-77
2022/01/23 09:23:31;;;;;;;;;32.25;26.50;;;;;;;;5095103;27;46397;-78
2022/01/23 09:25:58;;;;;;;;;25.50;17.50;;;;;;;;5093395;27;45287;-75
2022/01/23 09:28:30;;;;;;;;;26.75;19.50;;;;;;;;5095504;27;45317;-75
2022/01/23 09:30:56;;;;;;;;;22.25;15.50;;;;;;;;5095260;27;45434;-77
2022/01/23 09:33:21;;;;;;;;;27.00;18.00;;;;;;;;5095746;27;45382;-77
2022/01/23 09:35:47;;;;;;;;;20.00;16.50;;;;;;;;5095552;27;45577;-79
2022/01/23 09:38:12;;;;;;;;;24.50;22.75;;;;;;;;5096562;27;45455;-81
2022/01/23 09:40:41;;;;;;;;;28.25;21.75;;;;;;;;5094947;27;45558;-74
2022/01/23 09:43:08;;;;;;;;;27.75;23.50;;;;;;;;5094637;27;45467;-74
2022/01/23 09:45:33;;;;;;;;;21.00;17.25;;;;;;;;5094548;27;45357;-77
2022/01/23 09:48:00;;;;;;;;;23.50;20.75;;;;;;;;5095304;27;45243;-77
2022/01/23 09:50:26;;;;;;;;;20.75;19.00;;;;;;;;5095715;27;45611;-74
2022/01/23 09:52:55;;;;;;;;;36.00;34.00;;;;;;;;5095106;27;45423;-76
2022/01/23 09:55:21;;;;;;;;;35.75;28.25;;;;;;;;5094365;27;45449;-73
2022/01/23 09:57:48;;;;;;;;;29.00;24.75;;;;;;;;5094736;27;45468;-72
2022/01/23 10:00:14;;;;;;;;;21.25;19.75;;;;;;;;5094421;27;45389;-72
2022/01/23 10:02:40;;;;;;;;;25.00;23.50;;;;;;;;5093911;27;46210;-73
2022/01/23 10:05:06;;;;;;;;;24.25;21.25;;;;;;;;5094846;27;45698;-72
2022/01/23 10:07:32;;;;;;;;;28.00;22.25;;;;;;;;5094399;27;45479;-73
2022/01/23 10:10:09;;;;;;;;;22.75;19.25;;;;;;;;5094627;27;45369;-73
2022/01/23 10:12:37;;;;;;;;;26.75;21.50;;;;;;;;5093633;27;47099;-73
2022/01/23 10:15:03;;;;;;;;;33.25;29.00;;;;;;;;5094463;27;45349;-73
2022/01/23 10:17:28;;;;;;;;;27.00;24.25;;;;;;;;5094864;27;45318;-73
2022/01/23 10:19:53;;;;;;;;;36.00;31.50;;;;;;;;5102417;27;45398;-73
2022/01/23 10:22:18;;;;;;;;;31.50;29.00;;;;;;;;5106020;27;46060;-72
2022/01/23 10:24:44;;;;;;;;;31.25;24.75;;;;;;;;5110585;27;44756;-73
2022/01/23 10:27:09;;;;;;;;;24.50;24.00;;;;;;;;5108960;27;45284;-74
2022/01/23 10:29:37;;;;;;;;;31.75;25.50;;;;;;;;5113886;27;45347;-74
2022/01/23 10:32:08;;;;;;;;;26.25;22.50;;;;;;;;5099533;27;46368;-73
2022/01/23 10:34:44;;;;;;;;;22.25;16.50;;;;;;;;5094284;27;45522;-73
2022/01/23 10:37:11;;;;;;;;;24.00;22.00;;;;;;;;5093649;27;45391;-74
2022/01/23 10:39:45;;;;;;;;;24.00;21.75;;;;;;;;5094400;27;45449;-74
2022/01/23 10:42:47;;;;;;;;;18.00;15.25;;;;;;;;5093824;27;46232;-74
2022/01/23 10:48:00;;;;;;;;;22.75;18.75;;;;;;;;5077621;27;45401;-74
2022/01/23 10:50:26;;;;;;;;;30.00;22.75;;;;;;;;5094494;27;45548;-73
2022/01/23 10:52:53;;;;;;;;;23.75;21.00;;;;;;;;5093522;27;46512;-74
2022/01/23 10:55:18;;;;;;;;;25.00;20.50;;;;;;;;5093562;27;45323;-74
2022/01/23 10:57:45;;;;;;;;;29.25;22.75;;;;;;;;5094575;27;45569;-73
2022/01/23 11:00:19;;;;;;;;;21.25;17.25;;;;;;;;5093418;27;45428;-73
2022/01/23 11:02:44;;;;;;;;;31.50;25.50;;;;;;;;5093261;27;47668;-73
2022/01/23 11:05:15;;;;;;;;;25.50;22.75;;;;;;;;5094165;27;45380;-73
2022/01/23 11:07:42;;;;;;;;;40.75;31.00;;;;;;;;5092833;27;45599;-72
2022/01/23 11:10:27;;;;;;;;;25.00;23.75;;;;;;;;5093650;27;45420;-71
2022/01/23 11:18:11;;;;;;;;;26.00;22.75;;;;;;;;5080331;27;45456;-76
2022/01/23 11:20:36;;;;;;;;;28.25;24.25;;;;;;;;5093622;27;45417;-74
2022/01/23 11:23:26;;;;;;;;;26.40;23.40;;;;;;;;5094016;27;45456;-73
2022/01/23 11:25:54;;;;;;;;;28.50;24.25;;;;;;;;5093459;27;45429;-76
2022/01/23 11:28:19;;;;;;;;;20.00;16.50;;;;;;;;5093701;27;45389;-75
2022/01/23 11:30:47;;;;;;;;;17.75;16.00;;;;;;;;5093112;27;45466;-75
2022/01/23 11:33:14;;;;;;;;;25.50;21.25;;;;;;;;5093180;27;46088;-75
2022/01/23 11:35:40;;;;;;;;;22.25;16.75;;;;;;;;5092998;27;45310;-75
2022/01/23 11:38:14;;;;;;;;;20.00;20.00;;;;;;;;5092221;27;45406;-75
2022/01/23 11:54:34;;;;;;;;;25.00;20.00;;;;;;;;5053708;28;45539;-75
2022/01/23 11:57:02;;;;;;;;;17.75;16.00;;;;;;;;5053755;28;45701;-74
2022/01/23 11:59:32;;;;;;;;;21.25;15.75;;;;;;;;5053751;28;45367;-72
2022/01/23 12:02:10;;;;;;;;;15.75;15.00;;;;;;;;5054043;28;45436;-75
2022/01/23 12:04:36;;;;;;;;;22.25;17.25;;;;;;;;5052771;28;46974;-71
2022/01/23 12:07:03;;;;;;;;;13.25;10.50;;;;;;;;5052930;28;45380;-71
2022/01/23 12:09:29;;;;;;;;;17.75;15.50;;;;;;;;5053384;28;45517;-72
2022/01/23 12:12:19;;;;;;;;;15.25;14.00;;;;;;;;5036350;28;45515;-71
2022/01/23 12:17:11;;;;;;;;;17.50;15.00;;;;;;;;5053776;28;45422;-72
2022/01/23 12:19:44;;;;;;;;;19.50;18.25;;;;;;;;5058721;27;45523;-72
2022/01/23 12:22:25;;;;;;;;;20.25;14.25;;;;;;;;5096013;27;45541;-72
2022/01/23 12:24:52;;;;;;;;;21.00;16.00;;;;;;;;5096263;27;47030;-72
2022/01/23 12:27:24;;;;;;;;;13.00;11.25;;;;;;;;5096559;27;45369;-71
2022/01/23 12:29:49;;;;;;;;;19.75;15.50;;;;;;;;5096553;27;45564;-72
2022/01/23 12:32:26;;;;;;;;;17.75;15.25;;;;;;;;5095049;27;45501;-72
2022/01/23 12:34:53;;;;;;;;;20.25;17.25;;;;;;;;5095365;27;46575;-71
2022/01/23 12:37:19;;;;;;;;;25.00;22.25;;;;;;;;5096115;27;45329;-72
2022/01/23 12:39:46;;;;;;;;;17.25;16.25;;;;;;;;5096370;27;45311;-72
2022/01/23 12:42:11;;;;;;;;;21.00;16.00;;;;;;;;5096423;27;45523;-71
2022/01/23 12:44:37;;;;;;;;;19.50;17.25;;;;;;;;5096292;27;46050;-73
2022/01/23 12:47:16;;;;;;;;;17.00;13.00;;;;;;;;5095659;27;45491;-73
2022/01/23 12:49:48;;;;;;;;;19.50;18.00;;;;;;;;5095693;27;45674;-73
2022/01/23 12:52:18;;;;;;;;;16.75;15.00;;;;;;;;5095520;27;45289;-73
2022/01/23 12:54:46;;;;;;;;;16.25;15.25;;;;;;;;5101419;27;46065;-74
2022/01/23 12:57:13;;;;;;;;;20.75;18.50;;;;;;;;5096359;27;45464;-73
2022/01/23 12:59:40;;;;;;;;;22.75;21.50;;;;;;;;5095987;27;45560;-74
2022/01/23 13:02:15;;;;;;;;;22.00;16.25;;;;;;;;5093640;27;45591;-74
2022/01/23 13:04:42;;;;;;;;;24.25;20.00;;;;;;;;5098269;27;46217;-74
2022/01/23 13:07:14;;;;;;;;;30.50;23.00;;;;;;;;5100808;27;45297;-72
2022/01/23 13:12:27;;;;;;;;;19.75;17.75;;;;;;;;5094795;27;45412;-74
2022/01/23 13:18:34;;;;;;;;;21.25;16.75;;;;;;;;5091537;27;45506;-74
2022/01/23 13:32:07;;;;;;;;;25.25;21.75;;;;;;;;5094465;27;45420;-75
2022/01/23 13:34:29;;;;;;;;;23.25;21.25;;;;;;;;5094912;27;45236;-73
2022/01/23 13:36:56;;;;;;;;;21.75;18.50;;;;;;;;5094210;27;47065;-73
2022/01/23 13:39:23;;;;;;;;;26.50;21.75;;;;;;;;5094284;27;45598;-73
2022/01/23 13:42:04;;;;;;;;;27.75;20.50;;;;;;;;5094720;27;45436;-74
2022/01/23 13:53:22;;;;;;;;;28.00;22.50;;;;;;;;5052382;28;45588;-74
2022/01/23 13:58:37;;;;;;;;;40.25;34.25;;;;;;;;5051557;28;45809;-74
2022/01/23 14:01:35;;;;;;;;;31.50;28.00;;;;;;;;5051203;28;45483;-74
2022/01/23 14:04:01;;;;;;;;;37.00;34.00;;;;;;;;5034798;28;45575;-74
2022/01/23 14:06:27;;;;;;;;;26.75;22.50;;;;;;;;5051618;28;45517;-75
2022/01/23 14:08:59;;;;;;;;;29.50;25.50;;;;;;;;5051606;28;46296;-74
2022/01/23 14:11:25;;;;;;;;;30.25;24.50;;;;;;;;5048330;28;45426;-73
2022/01/23 14:13:50;;;;;;;;;35.00;28.75;;;;;;;;5051750;28;45509;-75
2022/01/23 14:16:24;;;;;;;;;27.75;24.75;;;;;;;;5051182;28;45399;-74
2022/01/23 14:18:49;;;;;;;;;29.50;22.50;;;;;;;;5051482;28;46402;-74
2022/01/23 14:21:14;;;;;;;;;30.25;27.00;;;;;;;;5051551;28;45525;-74
2022/01/23 14:23:39;;;;;;;;;26.75;22.50;;;;;;;;5068916;27;45423;-73
2022/01/23 14:26:07;;;;;;;;;29.50;24.25;;;;;;;;5094792;27;45615;-74
2022/01/23 14:28:48;;;;;;;;;39.50;33.25;;;;;;;;5093972;27;46364;-73
2022/01/23 14:31:20;;;;;;;;;39.00;27.00;;;;;;;;5094349;27;45531;-75
2022/01/23 14:33:48;;;;;;;;;31.25;24.25;;;;;;;;5094404;27;45385;-74
2022/01/23 14:36:15;;;;;;;;;25.75;21.50;;;;;;;;5094749;27;45434;-75
2022/01/23 14:38:52;;;;;;;;;32.25;28.00;;;;;;;;5094774;27;46086;-76
2022/01/23 14:41:17;;;;;;;;;32.00;26.25;;;;;;;;5111646;27;45455;-75
2022/01/23 14:43:42;;;;;;;;;26.75;23.25;;;;;;;;5093491;27;45611;-79
2022/01/23 14:46:09;;;;;;;;;38.25;32.75;;;;;;;;5093999;27;45413;-75
2022/01/23 14:48:43;;;;;;;;;40.75;34.25;;;;;;;;5094022;27;46044;-79
2022/01/23 14:51:09;;;;;;;;;24.00;21.50;;;;;;;;5094733;27;45217;-74
2022/01/23 14:53:35;;;;;;;;;33.75;31.25;;;;;;;;5094729;27;45358;-71
2022/01/23 14:56:02;;;;;;;;;31.00;25.00;;;;;;;;5094464;27;45417;-72
2022/01/23 14:58:29;;;;;;;;;22.00;20.50;;;;;;;;5093597;27;47166;-74
2022/01/23 15:00:56;;;;;;;;;31.00;25.50;;;;;;;;5093692;27;45386;-75
2022/01/23 15:03:22;;;;;;;;;27.00;27.00;;;;;;;;5094174;27;45327;-73
2022/01/23 15:05:48;;;;;;;;;36.00;30.00;;;;;;;;5094028;27;45545;-74
2022/01/23 15:08:14;;;;;;;;;30.25;26.50;;;;;;;;5094680;27;45343;-75
2022/01/23 15:10:41;;;;;;;;;34.25;26.00;;;;;;;;5094440;27;45245;-74
2022/01/23 15:13:06;;;;;;;;;23.75;20.25;;;;;;;;5093756;27;45443;-77
2022/01/23 15:15:32;;;;;;;;;37.25;26.75;;;;;;;;5093850;27;45218;-74
2022/01/23 15:17:57;;;;;;;;;34.75;25.50;;;;;;;;5094012;27;46117;-77
2022/01/23 15:20:23;;;;;;;;;35.50;28.25;;;;;;;;5094161;27;45297;-76
2022/01/23 15:22:48;;;;;;;;;29.25;25.75;;;;;;;;5093907;27;45261;-77
2022/01/23 15:25:14;;;;;;;;;51.00;36.00;;;;;;;;5096712;27;45561;-78
2022/01/23 15:27:40;;;;;;;;;37.25;28.75;;;;;;;;5093475;27;45473;-71
2022/01/23 15:30:06;;;;;;;;;38.75;34.00;;;;;;;;5095002;27;45442;-76
2022/01/23 15:32:32;;;;;;;;;32.00;25.50;;;;;;;;5097180;27;45408;-73
2022/01/23 15:34:57;;;;;;;;;33.00;30.50;;;;;;;;5095299;27;45545;-74
2022/01/23 15:37:22;;;;;;;;;31.25;26.25;;;;;;;;5092033;27;45481;-69
2022/01/23 15:39:48;;;;;;;;;30.25;20.00;;;;;;;;5094787;27;45387;-74
2022/01/23 15:42:13;;;;;;;;;27.25;25.25;;;;;;;;5087708;27;45372;-71
2022/01/23 15:44:40;;;;;;;;;33.50;27.00;;;;;;;;5096515;27;45514;-71
2022/01/23 15:47:05;;;;;;;;;31.25;25.25;;;;;;;;5096684;27;46142;-72
2022/01/23 15:49:30;;;;;;;;;30.50;27.00;;;;;;;;5096674;27;45433;-74
2022/01/23 15:51:56;;;;;;;;;32.25;23.75;;;;;;;;5097521;27;45346;-77
2022/01/23 15:54:22;;;;;;;;;30.50;22.50;;;;;;;;5097624;27;46154;-76
2022/01/23 15:56:48;;;;;;;;;27.75;25.75;;;;;;;;5095037;27;46165;-75
2022/01/23 15:59:17;;;;;;;;;280.67;224.00;;;;;;;;5103235;27;45423;-76
2022/01/23 16:01:44;;;;;;;;;35.00;27.75;;;;;;;;5097096;27;45651;-77
2022/01/23 16:04:09;;;;;;;;;27.25;24.25;;;;;;;;5096154;27;45284;-77
2022/01/23 16:06:35;;;;;;;;;33.75;25.75;;;;;;;;5096287;27;45461;-78
2022/01/23 16:09:00;;;;;;;;;28.75;28.50;;;;;;;;5096366;27;45344;-78
2022/01/23 16:11:25;;;;;;;;;38.25;26.25;;;;;;;;5095149;27;45557;-78
2022/01/23 16:13:50;;;;;;;;;51.25;40.00;;;;;;;;5096071;27;45627;-77
2022/01/23 16:16:15;;;;;;;;;30.00;26.25;;;;;;;;5095661;27;45280;-78
2022/01/23 16:18:41;;;;;;;;;33.00;25.50;;;;;;;;5096063;27;45302;-78
2022/01/23 16:21:07;;;;;;;;;28.75;24.75;;;;;;;;5096056;27;45415;-77
2022/01/23 16:23:32;;;;;;;;;24.00;23.00;;;;;;;;5095705;27;45347;-78
2022/01/23 16:25:58;;;;;;;;;29.75;29.25;;;;;;;;5096069;27;46375;-78
2022/01/23 16:28:23;;;;;;;;;26.25;24.00;;;;;;;;5095463;27;45593;-78
2022/01/23 16:30:51;;;;;;;;;31.75;27.00;;;;;;;;5089548;27;45453;-78
2022/01/23 16:33:17;;;;;;;;;30.50;30.00;;;;;;;;5095700;27;45337;-78
2022/01/23 16:35:42;;;;;;;;;38.25;30.00;;;;;;;;5094859;27;45479;-79
2022/01/23 16:38:08;;;;;;;;;33.75;25.00;;;;;;;;5095961;27;45563;-77
2022/01/23 16:40:33;;;;;;;;;38.00;32.50;;;;;;;;5094864;27;45365;-76
2022/01/23 16:42:58;;;;;;;;;41.50;35.50;;;;;;;;5094986;27;45346;-78
2022/01/23 16:45:24;;;;;;;;;30.00;28.25;;;;;;;;5094638;27;46689;-77
2022/01/23 16:47:49;;;;;;;;;26.50;24.00;;;;;;;;5094754;27;45507;-77
2022/01/23 16:50:16;;;;;;;;;33.00;26.25;;;;;;;;5100004;27;45521;-77
2022/01/23 16:52:41;;;;;;;;;36.25;27.50;;;;;;;;5091544;27;45477;-74
2022/01/23 16:55:06;;;;;;;;;27.00;24.50;;;;;;;;5094891;27;46324;-74
2022/01/23 16:57:31;;;;;;;;;34.75;28.75;;;;;;;;5095220;27;45462;-75
2022/01/23 16:59:57;;;;;;;;;32.00;24.00;;;;;;;;5095275;27;45370;-74
2022/01/23 17:02:22;;;;;;;;;31.75;26.25;;;;;;;;5095897;27;45712;-75
2022/01/23 17:04:47;;;;;;;;;35.00;30.50;;;;;;;;5094712;27;46273;-75
2022/01/23 17:07:12;;;;;;;;;31.00;28.50;;;;;;;;5094938;27;45422;-75
2022/01/23 17:09:38;;;;;;;;;41.00;35.75;;;;;;;;5094739;27;45349;-74
2022/01/23 17:12:07;;;;;;;;;39.00;34.50;;;;;;;;5095148;27;45465;-74
2022/01/23 17:14:32;;;;;;;;;46.75;36.50;;;;;;;;5095447;27;47182;-76
2022/01/23 17:16:58;;;;;;;;;33.75;28.25;;;;;;;;5094998;27;45264;-75
2022/01/23 17:19:23;;;;;;;;;38.00;31.50;;;;;;;;5094838;27;45236;-75
2022/01/23 17:21:48;;;;;;;;;34.75;29.00;;;;;;;;5094902;27;45434;-75
2022/01/23 17:24:13;;;;;;;;;30.00;24.75;;;;;;;;5094021;27;45501;-77
2022/01/23 17:26:40;;;;;;;;;27.75;22.75;;;;;;;;5092983;27;45226;-78
2022/01/23 17:29:05;;;;;;;;;33.75;30.25;;;;;;;;5095736;27;45421;-78
2022/01/23 17:31:30;;;;;;;;;35.75;29.50;;;;;;;;5094605;27;45280;-77
2022/01/23 17:33:55;;;;;;;;;34.00;29.25;;;;;;;;5093684;27;45306;-75